sensor_id;sensor_type;location;lat;lon;timestamp;temperature;humidity
46091;DHT22;31826;53.572;10.170;2022-12-18T00:01:22;-4.80;99.90
46091;DHT22;31826;53.572;10.170;2022-12-18T00:03:48;-4.80;99.90
46091;DHT22;31826;53.572;10.170;2022-12-18T00:06:14;-4.90;99.90
46091;DHT22;31826;53.572;10.170;2022-12-18T00:08:41;-4.90;99.90
46091;DHT22;31826;53.572;10.170;2022-12-18T00:11:10;-4.90;99.90
46091;DHT22;31826;53.572;10.170;2022-12-18T00:13:36;-4.90;99.90
46091;DHT22;31826;53.572;10.170;2022-12-18T00:16:03;-4.90;99.90
46091;DHT22;31826;53.572;10.170;2022-12-18T00:18:29;-4.90;99.90
46091;DHT22;31826;53.572;10.170;2022-12-18T00:21:02;-5.00;99.90
46091;DHT22;31826;53.572;10.170;2022-12-18T00:23:29;-5.00;99.90
46091;DHT22;31826;53.572;10.170;2022-12-18T00:25:55;-5.00;99.90
46091;DHT22;31826;53.572;10.170;2022-12-18T00:28:23;-5.00;99.90
46091;DHT22;31826;53.572;10.170;2022-12-18T00:30:49;-5.10;99.90
46091;DHT22;31826;53.572;10.170;2022-12-18T00:33:17;-5.10;99.90
46091;DHT22;31826;53.572;10.170;2022-12-18T00:35:43;-5.20;99.90
46091;DHT22;31826;53.572;10.170;2022-12-18T00:38:08;-5.20;99.90
46091;DHT22;31826;53.572;10.170;2022-12-18T00:40:34;-5.20;99.90
46091;DHT22;31826;53.572;10.170;2022-12-18T00:43:00;-5.20;99.90
46091;DHT22;31826;53.572;10.170;2022-12-18T00:45:27;-5.20;99.90
46091;DHT22;31826;53.572;10.170;2022-12-18T00:47:54;-5.20;99.90
46091;DHT22;31826;53.572;10.170;2022-12-18T00:50:21;-5.20;99.90
46091;DHT22;31826;53.572;10.170;2022-12-18T00:52:47;-5.20;99.90
46091;DHT22;31826;53.572;10.170;2022-12-18T00:55:13;-5.20;99.90
46091;DHT22;31826;53.572;10.170;2022-12-18T00:57:39;-5.10;99.90
46091;DHT22;31826;53.572;10.170;2022-12-18T01:00:07;-5.20;99.90
46091;DHT22;31826;53.572;10.170;2022-12-18T01:02:33;-5.20;99.90
46091;DHT22;31826;53.572;10.170;2022-12-18T01:04:59;-5.10;99.90
46091;DHT22;31826;53.572;10.170;2022-12-18T01:07:24;-5.10;99.90
46091;DHT22;31826;53.572;10.170;2022-12-18T01:09:50;-5.10;99.90
46091;DHT22;31826;53.572;10.170;2022-12-18T01:12:16;-5.10;99.90
46091;DHT22;31826;53.572;10.170;2022-12-18T01:14:42;-5.10;99.90
46091;DHT22;31826;53.572;10.170;2022-12-18T01:17:07;-5.10;99.90
46091;DHT22;31826;53.572;10.170;2022-12-18T01:19:33;-5.10;99.90
46091;DHT22;31826;53.572;10.170;2022-12-18T01:21:59;-5.10;99.90
46091;DHT22;31826;53.572;10.170;2022-12-18T01:24:25;-5.10;99.90
46091;DHT22;31826;53.572;10.170;2022-12-18T01:26:51;-5.20;99.90
46091;DHT22;31826;53.572;10.170;2022-12-18T01:29:16;-5.20;99.90
46091;DHT22;31826;53.572;10.170;2022-12-18T01:31:42;-5.10;99.90
46091;DHT22;31826;53.572;10.170;2022-12-18T01:34:09;-5.20;99.90
46091;DHT22;31826;53.572;10.170;2022-12-18T01:36:37;-5.20;99.90
46091;DHT22;31826;53.572;10.170;2022-12-18T01:39:13;-5.20;99.90
46091;DHT22;31826;53.572;10.170;2022-12-18T01:41:39;-5.20;99.90
46091;DHT22;31826;53.572;10.170;2022-12-18T01:44:59;-5.30;99.90
46091;DHT22;31826;53.572;10.170;2022-12-18T01:47:54;-5.20;99.90
46091;DHT22;31826;53.572;10.170;2022-12-18T01:50:32;-5.30;99.90
46091;DHT22;31826;53.572;10.170;2022-12-18T01:53:14;-5.30;99.90
46091;DHT22;31826;53.572;10.170;2022-12-18T01:55:50;-5.40;99.90
46091;DHT22;31826;53.572;10.170;2022-12-18T01:58:19;-5.40;99.90
46091;DHT22;31826;53.572;10.170;2022-12-18T02:00:46;-5.30;99.90
46091;DHT22;31826;53.572;10.170;2022-12-18T02:03:12;-5.30;99.90
46091;DHT22;31826;53.572;10.170;2022-12-18T02:05:57;-5.40;99.90
46091;DHT22;31826;53.572;10.170;2022-12-18T02:08:30;-5.50;99.90
46091;DHT22;31826;53.572;10.170;2022-12-18T02:16:59;-5.40;99.90
46091;DHT22;31826;53.572;10.170;2022-12-18T02:25:17;-5.50;99.90
46091;DHT22;31826;53.572;10.170;2022-12-18T02:27:47;-5.50;99.90
46091;DHT22;31826;53.572;10.170;2022-12-18T02:30:15;-5.50;99.90
46091;DHT22;31826;53.572;10.170;2022-12-18T02:32:45;-5.40;99.90
46091;DHT22;31826;53.572;10.170;2022-12-18T02:35:22;-5.50;99.90
46091;DHT22;31826;53.572;10.170;2022-12-18T02:37:48;-5.50;99.90
46091;DHT22;31826;53.572;10.170;2022-12-18T02:40:15;-5.50;99.90
46091;DHT22;31826;53.572;10.170;2022-12-18T02:42:41;-5.50;99.90
46091;DHT22;31826;53.572;10.170;2022-12-18T02:45:07;-5.40;99.90
46091;DHT22;31826;53.572;10.170;2022-12-18T02:47:38;-5.50;99.90
46091;DHT22;31826;53.572;10.170;2022-12-18T02:50:16;-5.50;99.90
46091;DHT22;31826;53.572;10.170;2022-12-18T02:58:36;-5.70;99.90
46091;DHT22;31826;53.572;10.170;2022-12-18T03:03:52;-5.80;99.90
46091;DHT22;31826;53.572;10.170;2022-12-18T03:06:23;-5.90;99.90
46091;DHT22;31826;53.572;10.170;2022-12-18T03:08:56;-5.90;99.90
46091;DHT22;31826;53.572;10.170;2022-12-18T03:11:25;-5.90;99.90
46091;DHT22;31826;53.572;10.170;2022-12-18T03:14:13;-6.00;99.90
46091;DHT22;31826;53.572;10.170;2022-12-18T03:16:41;-6.10;99.90
46091;DHT22;31826;53.572;10.170;2022-12-18T03:19:12;-6.10;99.90
46091;DHT22;31826;53.572;10.170;2022-12-18T03:21:46;-6.10;99.90
46091;DHT22;31826;53.572;10.170;2022-12-18T03:24:14;-6.10;99.90
46091;DHT22;31826;53.572;10.170;2022-12-18T03:26:43;-6.00;99.90
46091;DHT22;31826;53.572;10.170;2022-12-18T03:32:24;-6.00;99.90
46091;DHT22;31826;53.572;10.170;2022-12-18T03:34:52;-5.90;99.90
46091;DHT22;31826;53.572;10.170;2022-12-18T03:37:19;-6.00;99.90
46091;DHT22;31826;53.572;10.170;2022-12-18T03:39:44;-6.00;99.90
46091;DHT22;31826;53.572;10.170;2022-12-18T03:42:31;-6.00;99.90
46091;DHT22;31826;53.572;10.170;2022-12-18T03:45:09;-6.00;99.90
46091;DHT22;31826;53.572;10.170;2022-12-18T03:50:36;-6.00;99.90
46091;DHT22;31826;53.572;10.170;2022-12-18T03:53:16;-6.00;99.90
46091;DHT22;31826;53.572;10.170;2022-12-18T03:55:44;-5.90;99.90
46091;DHT22;31826;53.572;10.170;2022-12-18T03:58:13;-6.00;99.90
46091;DHT22;31826;53.572;10.170;2022-12-18T04:00:40;-5.90;99.90
46091;DHT22;31826;53.572;10.170;2022-12-18T04:03:07;-6.00;99.90
46091;DHT22;31826;53.572;10.170;2022-12-18T04:05:35;-6.00;99.90
46091;DHT22;31826;53.572;10.170;2022-12-18T04:08:03;-6.10;99.90
46091;DHT22;31826;53.572;10.170;2022-12-18T04:10:30;-5.90;99.90
46091;DHT22;31826;53.572;10.170;2022-12-18T04:12:56;-6.00;99.90
46091;DHT22;31826;53.572;10.170;2022-12-18T04:15:22;-6.00;99.90
46091;DHT22;31826;53.572;10.170;2022-12-18T04:17:49;-6.00;99.90
46091;DHT22;31826;53.572;10.170;2022-12-18T04:20:15;-6.00;99.90
46091;DHT22;31826;53.572;10.170;2022-12-18T04:22:41;-6.10;99.90
46091;DHT22;31826;53.572;10.170;2022-12-18T04:25:07;-6.20;99.90
46091;DHT22;31826;53.572;10.170;2022-12-18T04:27:33;-6.10;99.90
46091;DHT22;31826;53.572;10.170;2022-12-18T04:29:58;-6.20;99.90
46091;DHT22;31826;53.572;10.170;2022-12-18T04:32:24;-6.20;99.90
46091;DHT22;31826;53.572;10.170;2022-12-18T04:34:50;-6.10;99.90
46091;DHT22;31826;53.572;10.170;2022-12-18T04:37:16;-6.10;99.90
46091;DHT22;31826;53.572;10.170;2022-12-18T04:39:41;-6.00;99.90
46091;DHT22;31826;53.572;10.170;2022-12-18T04:42:07;-6.00;99.90
46091;DHT22;31826;53.572;10.170;2022-12-18T04:44:33;-6.10;99.90
46091;DHT22;31826;53.572;10.170;2022-12-18T04:46:58;-6.20;99.90
46091;DHT22;31826;53.572;10.170;2022-12-18T04:49:24;-6.30;99.90
46091;DHT22;31826;53.572;10.170;2022-12-18T04:51:50;-6.20;99.90
46091;DHT22;31826;53.572;10.170;2022-12-18T04:54:15;-6.30;99.90
46091;DHT22;31826;53.572;10.170;2022-12-18T04:56:41;-6.30;99.90
46091;DHT22;31826;53.572;10.170;2022-12-18T04:59:07;-6.30;99.90
46091;DHT22;31826;53.572;10.170;2022-12-18T05:01:32;-6.30;99.90
46091;DHT22;31826;53.572;10.170;2022-12-18T05:03:58;-6.30;99.90
46091;DHT22;31826;53.572;10.170;2022-12-18T05:06:24;-6.20;99.90
46091;DHT22;31826;53.572;10.170;2022-12-18T05:08:49;-6.30;99.90
46091;DHT22;31826;53.572;10.170;2022-12-18T05:11:15;-6.30;99.90
46091;DHT22;31826;53.572;10.170;2022-12-18T05:13:42;-6.30;99.90
46091;DHT22;31826;53.572;10.170;2022-12-18T05:16:08;-6.30;99.90
46091;DHT22;31826;53.572;10.170;2022-12-18T05:18:34;-6.30;99.90
46091;DHT22;31826;53.572;10.170;2022-12-18T05:21:00;-6.30;99.90
46091;DHT22;31826;53.572;10.170;2022-12-18T05:23:26;-6.30;99.90
46091;DHT22;31826;53.572;10.170;2022-12-18T05:25:54;-6.20;99.90
46091;DHT22;31826;53.572;10.170;2022-12-18T05:28:21;-6.20;99.90
46091;DHT22;31826;53.572;10.170;2022-12-18T05:30:51;-6.20;99.90
46091;DHT22;31826;53.572;10.170;2022-12-18T05:33:18;-6.20;99.90
46091;DHT22;31826;53.572;10.170;2022-12-18T05:35:44;-6.20;99.90
46091;DHT22;31826;53.572;10.170;2022-12-18T05:38:10;-6.20;99.90
46091;DHT22;31826;53.572;10.170;2022-12-18T05:40:35;-6.20;99.90
46091;DHT22;31826;53.572;10.170;2022-12-18T05:43:02;-6.20;99.90
46091;DHT22;31826;53.572;10.170;2022-12-18T05:45:27;-6.20;99.90
46091;DHT22;31826;53.572;10.170;2022-12-18T05:47:53;-6.20;99.90
46091;DHT22;31826;53.572;10.170;2022-12-18T05:50:19;-6.20;99.90
46091;DHT22;31826;53.572;10.170;2022-12-18T05:52:44;-6.20;99.90
46091;DHT22;31826;53.572;10.170;2022-12-18T05:55:10;-6.20;99.90
46091;DHT22;31826;53.572;10.170;2022-12-18T05:57:36;-6.20;99.90
46091;DHT22;31826;53.572;10.170;2022-12-18T06:00:02;-6.30;99.90
46091;DHT22;31826;53.572;10.170;2022-12-18T06:02:28;-6.40;99.90
46091;DHT22;31826;53.572;10.170;2022-12-18T06:04:54;-6.40;99.90
46091;DHT22;31826;53.572;10.170;2022-12-18T06:07:20;-6.40;99.90
46091;DHT22;31826;53.572;10.170;2022-12-18T06:09:45;-6.50;99.90
46091;DHT22;31826;53.572;10.170;2022-12-18T06:12:11;-6.40;99.90
46091;DHT22;31826;53.572;10.170;2022-12-18T06:14:37;-6.30;99.90
46091;DHT22;31826;53.572;10.170;2022-12-18T06:17:02;-6.40;99.90
46091;DHT22;31826;53.572;10.170;2022-12-18T06:19:28;-6.40;99.90
46091;DHT22;31826;53.572;10.170;2022-12-18T06:21:54;-6.40;99.90
46091;DHT22;31826;53.572;10.170;2022-12-18T06:24:20;-6.40;99.90
46091;DHT22;31826;53.572;10.170;2022-12-18T06:26:45;-6.40;99.90
46091;DHT22;31826;53.572;10.170;2022-12-18T06:29:11;-6.50;99.90
46091;DHT22;31826;53.572;10.170;2022-12-18T06:31:36;-6.40;99.90
46091;DHT22;31826;53.572;10.170;2022-12-18T06:34:03;-6.40;99.90
46091;DHT22;31826;53.572;10.170;2022-12-18T06:36:29;-6.30;99.90
46091;DHT22;31826;53.572;10.170;2022-12-18T06:38:56;-6.50;99.90
46091;DHT22;31826;53.572;10.170;2022-12-18T06:41:23;-6.40;99.90
46091;DHT22;31826;53.572;10.170;2022-12-18T06:43:49;-6.50;99.90
46091;DHT22;31826;53.572;10.170;2022-12-18T06:46:15;-6.40;99.90
46091;DHT22;31826;53.572;10.170;2022-12-18T06:48:40;-6.40;99.90
46091;DHT22;31826;53.572;10.170;2022-12-18T06:51:06;-6.40;99.90
46091;DHT22;31826;53.572;10.170;2022-12-18T06:53:32;-6.40;99.90
46091;DHT22;31826;53.572;10.170;2022-12-18T06:56:06;-6.30;99.90
46091;DHT22;31826;53.572;10.170;2022-12-18T06:58:33;-6.30;99.90
46091;DHT22;31826;53.572;10.170;2022-12-18T07:01:04;-6.30;99.90
46091;DHT22;31826;53.572;10.170;2022-12-18T07:03:30;-6.20;99.90
46091;DHT22;31826;53.572;10.170;2022-12-18T07:05:56;-6.20;99.90
46091;DHT22;31826;53.572;10.170;2022-12-18T07:08:21;-6.30;99.90
46091;DHT22;31826;53.572;10.170;2022-12-18T07:10:47;-6.30;99.90
46091;DHT22;31826;53.572;10.170;2022-12-18T07:13:15;-6.20;99.90
46091;DHT22;31826;53.572;10.170;2022-12-18T07:15:41;-6.20;99.90
46091;DHT22;31826;53.572;10.170;2022-12-18T07:18:07;-6.20;99.90
46091;DHT22;31826;53.572;10.170;2022-12-18T07:20:33;-6.20;99.90
46091;DHT22;31826;53.572;10.170;2022-12-18T07:22:58;-6.20;99.90
46091;DHT22;31826;53.572;10.170;2022-12-18T07:25:24;-6.20;99.90
46091;DHT22;31826;53.572;10.170;2022-12-18T07:27:50;-6.20;99.90
46091;DHT22;31826;53.572;10.170;2022-12-18T07:30:15;-6.20;99.90
46091;DHT22;31826;53.572;10.170;2022-12-18T07:32:41;-6.20;99.90
46091;DHT22;31826;53.572;10.170;2022-12-18T07:35:07;-6.20;99.90
46091;DHT22;31826;53.572;10.170;2022-12-18T07:37:32;-6.20;99.90
46091;DHT22;31826;53.572;10.170;2022-12-18T07:39:58;-6.20;99.90
46091;DHT22;31826;53.572;10.170;2022-12-18T07:42:24;-6.20;99.90
46091;DHT22;31826;53.572;10.170;2022-12-18T07:44:56;-6.20;99.90
46091;DHT22;31826;53.572;10.170;2022-12-18T07:47:21;-6.10;99.90
46091;DHT22;31826;53.572;10.170;2022-12-18T07:49:47;-6.10;99.90
46091;DHT22;31826;53.572;10.170;2022-12-18T07:52:13;-6.00;99.90
46091;DHT22;31826;53.572;10.170;2022-12-18T07:54:39;-6.20;99.90
46091;DHT22;31826;53.572;10.170;2022-12-18T07:57:06;-6.20;99.90
46091;DHT22;31826;53.572;10.170;2022-12-18T07:59:31;-6.20;99.90
46091;DHT22;31826;53.572;10.170;2022-12-18T08:01:57;-6.20;99.90
46091;DHT22;31826;53.572;10.170;2022-12-18T08:04:24;-6.10;99.90
46091;DHT22;31826;53.572;10.170;2022-12-18T08:06:50;-6.10;99.90
46091;DHT22;31826;53.572;10.170;2022-12-18T08:09:16;-6.10;99.90
46091;DHT22;31826;53.572;10.170;2022-12-18T08:11:41;-6.10;99.90
46091;DHT22;31826;53.572;10.170;2022-12-18T08:14:08;-6.00;99.90
46091;DHT22;31826;53.572;10.170;2022-12-18T08:16:34;-6.00;99.90
46091;DHT22;31826;53.572;10.170;2022-12-18T08:19:00;-6.00;99.90
46091;DHT22;31826;53.572;10.170;2022-12-18T08:21:28;-5.90;99.90
46091;DHT22;31826;53.572;10.170;2022-12-18T08:23:55;-5.80;99.90
46091;DHT22;31826;53.572;10.170;2022-12-18T08:26:22;-5.80;99.90
46091;DHT22;31826;53.572;10.170;2022-12-18T08:28:49;-5.70;99.90
46091;DHT22;31826;53.572;10.170;2022-12-18T08:31:15;-5.70;99.90
46091;DHT22;31826;53.572;10.170;2022-12-18T08:33:41;-5.70;99.90
46091;DHT22;31826;53.572;10.170;2022-12-18T08:36:08;-5.60;99.90
46091;DHT22;31826;53.572;10.170;2022-12-18T08:38:34;-5.60;99.90
46091;DHT22;31826;53.572;10.170;2022-12-18T08:41:05;-5.60;99.90
46091;DHT22;31826;53.572;10.170;2022-12-18T08:43:32;-5.50;99.90
46091;DHT22;31826;53.572;10.170;2022-12-18T08:46:17;-5.40;99.90
46091;DHT22;31826;53.572;10.170;2022-12-18T08:48:43;-5.40;99.90
46091;DHT22;31826;53.572;10.170;2022-12-18T08:51:09;-5.40;99.90
46091;DHT22;31826;53.572;10.170;2022-12-18T08:53:36;-5.30;99.90
46091;DHT22;31826;53.572;10.170;2022-12-18T08:56:02;-5.30;99.90
46091;DHT22;31826;53.572;10.170;2022-12-18T08:58:28;-5.20;99.90
46091;DHT22;31826;53.572;10.170;2022-12-18T09:00:53;-5.20;99.90
46091;DHT22;31826;53.572;10.170;2022-12-18T09:03:19;-5.20;99.90
46091;DHT22;31826;53.572;10.170;2022-12-18T09:05:47;-5.00;99.90
46091;DHT22;31826;53.572;10.170;2022-12-18T09:08:13;-5.00;99.90
46091;DHT22;31826;53.572;10.170;2022-12-18T09:10:46;-5.00;99.90
46091;DHT22;31826;53.572;10.170;2022-12-18T09:13:13;-4.90;99.90
46091;DHT22;31826;53.572;10.170;2022-12-18T09:15:48;-4.70;99.90
46091;DHT22;31826;53.572;10.170;2022-12-18T09:18:15;-4.90;99.90
46091;DHT22;31826;53.572;10.170;2022-12-18T09:20:41;-4.80;99.90
46091;DHT22;31826;53.572;10.170;2022-12-18T09:23:07;-4.70;99.90
46091;DHT22;31826;53.572;10.170;2022-12-18T09:25:33;-4.60;99.90
46091;DHT22;31826;53.572;10.170;2022-12-18T09:28:04;-4.60;99.90
46091;DHT22;31826;53.572;10.170;2022-12-18T09:30:30;-4.50;99.90
46091;DHT22;31826;53.572;10.170;2022-12-18T09:32:58;-4.40;99.90
46091;DHT22;31826;53.572;10.170;2022-12-18T09:35:24;-4.20;99.90
46091;DHT22;31826;53.572;10.170;2022-12-18T09:37:50;-4.20;99.90
46091;DHT22;31826;53.572;10.170;2022-12-18T09:40:19;-4.10;99.90
46091;DHT22;31826;53.572;10.170;2022-12-18T09:42:51;-3.80;99.90
46091;DHT22;31826;53.572;10.170;2022-12-18T09:45:19;-3.50;99.90
46091;DHT22;31826;53.572;10.170;2022-12-18T09:47:46;-3.00;99.90
46091;DHT22;31826;53.572;10.170;2022-12-18T09:50:33;-2.70;99.90
46091;DHT22;31826;53.572;10.170;2022-12-18T09:53:05;-2.30;99.90
46091;DHT22;31826;53.572;10.170;2022-12-18T09:55:37;-2.00;99.90
46091;DHT22;31826;53.572;10.170;2022-12-18T10:00:55;-2.20;99.90
46091;DHT22;31826;53.572;10.170;2022-12-18T10:03:21;-1.80;99.90
46091;DHT22;31826;53.572;10.170;2022-12-18T10:08:49;-1.40;99.90
46091;DHT22;31826;53.572;10.170;2022-12-18T10:14:12;-1.80;99.90
46091;DHT22;31826;53.572;10.170;2022-12-18T10:17:10;-2.00;99.90
46091;DHT22;31826;53.572;10.170;2022-12-18T10:19:55;-1.80;99.90
46091;DHT22;31826;53.572;10.170;2022-12-18T10:26:12;-1.60;99.90
46091;DHT22;31826;53.572;10.170;2022-12-18T10:28:15;-1.40;99.90
46091;DHT22;31826;53.572;10.170;2022-12-18T10:30:42;-1.30;99.90
46091;DHT22;31826;53.572;10.170;2022-12-18T10:33:18;-1.30;99.90
46091;DHT22;31826;53.572;10.170;2022-12-18T10:35:45;-1.10;99.90
46091;DHT22;31826;53.572;10.170;2022-12-18T10:43:16;-1.80;99.90
46091;DHT22;31826;53.572;10.170;2022-12-18T10:46:19;-2.10;99.90
46091;DHT22;31826;53.572;10.170;2022-12-18T10:51:26;-2.40;99.90
46091;DHT22;31826;53.572;10.170;2022-12-18T10:54:04;-2.40;99.90
46091;DHT22;31826;53.572;10.170;2022-12-18T10:59:01;-2.40;99.90
46091;DHT22;31826;53.572;10.170;2022-12-18T11:01:28;-2.40;99.90
46091;DHT22;31826;53.572;10.170;2022-12-18T11:06:23;-2.10;99.90
46091;DHT22;31826;53.572;10.170;2022-12-18T11:09:19;-1.90;99.90
46091;DHT22;31826;53.572;10.170;2022-12-18T11:11:59;-1.60;99.90
46091;DHT22;31826;53.572;10.170;2022-12-18T11:16:55;-0.90;99.90
46091;DHT22;31826;53.572;10.170;2022-12-18T11:21:58;-0.10;99.90
46091;DHT22;31826;53.572;10.170;2022-12-18T11:24:33;-0.20;99.90
46091;DHT22;31826;53.572;10.170;2022-12-18T11:27:04;-0.10;99.90
46091;DHT22;31826;53.572;10.170;2022-12-18T11:29:37;-0.10;99.90
46091;DHT22;31826;53.572;10.170;2022-12-18T11:32:26;-0.30;99.90
46091;DHT22;31826;53.572;10.170;2022-12-18T11:35:10;-0.60;99.90
46091;DHT22;31826;53.572;10.170;2022-12-18T11:37:36;-0.70;99.90
46091;DHT22;31826;53.572;10.170;2022-12-18T11:40:14;-1.10;99.90
46091;DHT22;31826;53.572;10.170;2022-12-18T11:42:51;-1.30;99.90
46091;DHT22;31826;53.572;10.170;2022-12-18T11:45:34;-1.50;99.90
46091;DHT22;31826;53.572;10.170;2022-12-18T11:48:36;-1.60;99.90
46091;DHT22;31826;53.572;10.170;2022-12-18T11:50:57;-1.70;99.90
46091;DHT22;31826;53.572;10.170;2022-12-18T11:53:26;-1.60;99.90
46091;DHT22;31826;53.572;10.170;2022-12-18T12:01:23;-1.50;99.90
46091;DHT22;31826;53.572;10.170;2022-12-18T12:09:30;-1.60;99.90
46091;DHT22;31826;53.572;10.170;2022-12-18T12:12:15;-1.50;99.90
46091;DHT22;31826;53.572;10.170;2022-12-18T12:36:24;-1.60;99.90
46091;DHT22;31826;53.572;10.170;2022-12-18T12:38:58;-1.70;99.90
46091;DHT22;31826;53.572;10.170;2022-12-18T12:41:28;-1.70;99.90
46091;DHT22;31826;53.572;10.170;2022-12-18T12:44:25;-1.70;99.90
46091;DHT22;31826;53.572;10.170;2022-12-18T12:46:55;-1.70;99.90
46091;DHT22;31826;53.572;10.170;2022-12-18T12:49:25;-1.70;99.90
46091;DHT22;31826;53.572;10.170;2022-12-18T12:52:22;-1.60;99.90
46091;DHT22;31826;53.572;10.170;2022-12-18T12:54:50;-1.40;99.90
46091;DHT22;31826;53.572;10.170;2022-12-18T13:00:04;-0.80;99.90
46091;DHT22;31826;53.572;10.170;2022-12-18T13:05:34;-1.20;99.90
46091;DHT22;31826;53.572;10.170;2022-12-18T13:08:06;-1.50;99.90
46091;DHT22;31826;53.572;10.170;2022-12-18T13:10:35;-1.60;99.90
46091;DHT22;31826;53.572;10.170;2022-12-18T13:13:12;-1.60;99.90
46091;DHT22;31826;53.572;10.170;2022-12-18T13:20:50;-1.70;99.90
46091;DHT22;31826;53.572;10.170;2022-12-18T13:25:59;-1.60;99.90
46091;DHT22;31826;53.572;10.170;2022-12-18T13:31:10;-1.60;99.90
46091;DHT22;31826;53.572;10.170;2022-12-18T13:33:37;-1.70;99.90
46091;DHT22;31826;53.572;10.170;2022-12-18T13:39:08;-1.70;99.90
46091;DHT22;31826;53.572;10.170;2022-12-18T13:41:33;-1.90;99.90
46091;DHT22;31826;53.572;10.170;2022-12-18T13:44:28;-2.00;99.90
46091;DHT22;31826;53.572;10.170;2022-12-18T13:46:56;-2.00;99.90
46091;DHT22;31826;53.572;10.170;2022-12-18T13:49:41;-2.10;99.90
46091;DHT22;31826;53.572;10.170;2022-12-18T13:52:21;-2.10;99.90
46091;DHT22;31826;53.572;10.170;2022-12-18T13:55:01;-2.10;99.90
46091;DHT22;31826;53.572;10.170;2022-12-18T13:57:36;-2.20;99.90
46091;DHT22;31826;53.572;10.170;2022-12-18T14:02:48;-2.20;99.90
46091;DHT22;31826;53.572;10.170;2022-12-18T14:05:31;-2.20;99.90
46091;DHT22;31826;53.572;10.170;2022-12-18T14:08:03;-2.30;99.90
46091;DHT22;31826;53.572;10.170;2022-12-18T14:10:30;-2.30;99.90
46091;DHT22;31826;53.572;10.170;2022-12-18T14:12:57;-2.30;99.90
46091;DHT22;31826;53.572;10.170;2022-12-18T14:15:35;-2.40;99.90
46091;DHT22;31826;53.572;10.170;2022-12-18T14:20:59;-2.40;99.90
46091;DHT22;31826;53.572;10.170;2022-12-18T14:23:35;-2.40;99.90
46091;DHT22;31826;53.572;10.170;2022-12-18T14:26:03;-2.50;99.90
46091;DHT22;31826;53.572;10.170;2022-12-18T14:28:29;-2.50;99.90
46091;DHT22;31826;53.572;10.170;2022-12-18T14:30:55;-2.50;99.90
46091;DHT22;31826;53.572;10.170;2022-12-18T14:33:27;-2.50;99.90
46091;DHT22;31826;53.572;10.170;2022-12-18T14:36:05;-2.60;99.90
46091;DHT22;31826;53.572;10.170;2022-12-18T14:38:35;-2.60;99.90
46091;DHT22;31826;53.572;10.170;2022-12-18T14:41:02;-2.60;99.90
46091;DHT22;31826;53.572;10.170;2022-12-18T14:43:31;-2.60;99.90
46091;DHT22;31826;53.572;10.170;2022-12-18T14:45:58;-2.70;99.90
46091;DHT22;31826;53.572;10.170;2022-12-18T14:53:47;-2.70;99.90
46091;DHT22;31826;53.572;10.170;2022-12-18T14:56:17;-2.80;99.90
46091;DHT22;31826;53.572;10.170;2022-12-18T14:59:03;-2.80;99.90
46091;DHT22;31826;53.572;10.170;2022-12-18T15:01:36;-2.80;99.90
46091;DHT22;31826;53.572;10.170;2022-12-18T15:04:04;-2.80;99.90
46091;DHT22;31826;53.572;10.170;2022-12-18T15:06:34;-2.90;99.90
46091;DHT22;31826;53.572;10.170;2022-12-18T15:09:24;-2.90;99.90
46091;DHT22;31826;53.572;10.170;2022-12-18T15:11:55;-3.00;99.90
46091;DHT22;31826;53.572;10.170;2022-12-18T15:14:39;-3.10;99.90
46091;DHT22;31826;53.572;10.170;2022-12-18T15:17:17;-3.10;99.90
46091;DHT22;31826;53.572;10.170;2022-12-18T15:19:44;-3.10;99.90
46091;DHT22;31826;53.572;10.170;2022-12-18T15:22:21;-3.10;99.90
46091;DHT22;31826;53.572;10.170;2022-12-18T15:24:47;-3.20;99.90
46091;DHT22;31826;53.572;10.170;2022-12-18T15:27:42;-3.30;99.90
46091;DHT22;31826;53.572;10.170;2022-12-18T15:32:40;-3.30;99.90
46091;DHT22;31826;53.572;10.170;2022-12-18T15:37:34;-3.50;99.90
46091;DHT22;31826;53.572;10.170;2022-12-18T15:40:00;-3.40;99.90
46091;DHT22;31826;53.572;10.170;2022-12-18T15:42:28;-3.60;99.90
46091;DHT22;31826;53.572;10.170;2022-12-18T15:45:12;-3.60;99.90
46091;DHT22;31826;53.572;10.170;2022-12-18T15:47:39;-3.60;99.90
46091;DHT22;31826;53.572;10.170;2022-12-18T15:50:05;-3.70;99.90
46091;DHT22;31826;53.572;10.170;2022-12-18T15:52:40;-3.70;99.90
46091;DHT22;31826;53.572;10.170;2022-12-18T15:55:14;-3.70;99.90
46091;DHT22;31826;53.572;10.170;2022-12-18T15:57:59;-3.70;99.90
46091;DHT22;31826;53.572;10.170;2022-12-18T16:00:25;-3.70;99.90
46091;DHT22;31826;53.572;10.170;2022-12-18T16:02:51;-3.70;99.90
46091;DHT22;31826;53.572;10.170;2022-12-18T16:05:18;-3.70;99.90
46091;DHT22;31826;53.572;10.170;2022-12-18T16:07:45;-3.70;99.90
46091;DHT22;31826;53.572;10.170;2022-12-18T16:10:11;-3.80;99.90
46091;DHT22;31826;53.572;10.170;2022-12-18T16:12:37;-3.70;99.90
46091;DHT22;31826;53.572;10.170;2022-12-18T16:15:05;-3.60;99.90
46091;DHT22;31826;53.572;10.170;2022-12-18T16:17:31;-3.70;99.90
46091;DHT22;31826;53.572;10.170;2022-12-18T16:19:57;-3.80;99.90
46091;DHT22;31826;53.572;10.170;2022-12-18T16:22:25;-3.80;99.90
46091;DHT22;31826;53.572;10.170;2022-12-18T16:24:53;-3.80;99.90
46091;DHT22;31826;53.572;10.170;2022-12-18T16:27:19;-3.70;99.90
46091;DHT22;31826;53.572;10.170;2022-12-18T16:29:45;-3.80;99.90
46091;DHT22;31826;53.572;10.170;2022-12-18T16:32:16;-3.70;99.90
46091;DHT22;31826;53.572;10.170;2022-12-18T16:34:43;-3.70;99.90
46091;DHT22;31826;53.572;10.170;2022-12-18T16:37:10;-3.70;99.90
46091;DHT22;31826;53.572;10.170;2022-12-18T16:39:38;-3.70;99.90
46091;DHT22;31826;53.572;10.170;2022-12-18T16:42:16;-3.80;99.90
46091;DHT22;31826;53.572;10.170;2022-12-18T16:44:45;-3.80;99.90
46091;DHT22;31826;53.572;10.170;2022-12-18T16:47:11;-3.60;99.90
46091;DHT22;31826;53.572;10.170;2022-12-18T16:49:37;-3.70;99.90
46091;DHT22;31826;53.572;10.170;2022-12-18T16:52:04;-3.70;99.90
46091;DHT22;31826;53.572;10.170;2022-12-18T16:54:30;-3.80;99.90
46091;DHT22;31826;53.572;10.170;2022-12-18T16:56:58;-3.70;99.90
46091;DHT22;31826;53.572;10.170;2022-12-18T16:59:25;-3.70;99.90
46091;DHT22;31826;53.572;10.170;2022-12-18T17:01:51;-3.70;99.90
46091;DHT22;31826;53.572;10.170;2022-12-18T17:04:17;-3.70;99.90
46091;DHT22;31826;53.572;10.170;2022-12-18T17:06:44;-3.60;99.90
46091;DHT22;31826;53.572;10.170;2022-12-18T17:09:13;-3.70;99.90
46091;DHT22;31826;53.572;10.170;2022-12-18T17:11:39;-3.70;99.90
46091;DHT22;31826;53.572;10.170;2022-12-18T17:14:08;-3.70;99.90
46091;DHT22;31826;53.572;10.170;2022-12-18T17:16:34;-3.70;99.90
46091;DHT22;31826;53.572;10.170;2022-12-18T17:19:00;-3.70;99.90
46091;DHT22;31826;53.572;10.170;2022-12-18T17:21:26;-3.70;99.90
46091;DHT22;31826;53.572;10.170;2022-12-18T17:23:51;-3.60;99.90
46091;DHT22;31826;53.572;10.170;2022-12-18T17:26:17;-3.60;99.90
46091;DHT22;31826;53.572;10.170;2022-12-18T17:28:43;-3.60;99.90
46091;DHT22;31826;53.572;10.170;2022-12-18T17:31:13;-3.60;99.90
46091;DHT22;31826;53.572;10.170;2022-12-18T17:33:39;-3.60;99.90